This is the latest recevied weather packets stored in our database for station/object KA3ZXO. If no packets are shown the sender has not sent any weather packets the latest 1 day(s).
| Time | Temp. | Humidity | Pressure | Rain* | Wind** | Luminosity | Snow |
|---|---|---|---|---|---|---|---|
| 1778067311 | 18.89° C | 71% | 1011.4 hPa | 0 mm | - | 31 W/m² | - |
| 1778066106 | 18.33° C | 71% | 1011.4 hPa | 0 mm | - | 29 W/m² | - |
| 1778064905 | 17.78° C | 73% | 1011.2 hPa | 0 mm | - | 14 W/m² | - |
| 1778063096 | 17.78° C | 74% | 1010.8 hPa | 0 mm | - | 7 W/m² | - |
| 1778062495 | 17.78° C | 75% | 1010.9 hPa | 0 mm | - | 3 W/m² | - |
| 1778061891 | 17.78° C | 75% | 1011.2 hPa | 0 mm | - | 1 W/m² | - |
| 1778061287 | 17.78° C | 75% | 1011.2 hPa | 0 mm | - | 0 W/m² | - |
| 1778060687 | 17.78° C | 75% | 1011.2 hPa | 0 mm | - | 0 W/m² | - |
| 1778057672 | 18.33° C | 76% | 1011.2 hPa | 0 mm | - | 0 W/m² | - |
| 1778055271 | 18.33° C | 75% | 1011.2 hPa | 0 mm | - | 0 W/m² | - |
| 1778054670 | 18.33° C | 74% | 1011.2 hPa | 0 mm | - | 0 W/m² | - |
| 1778054065 | 18.33° C | 74% | 1011.2 hPa | 0 mm | - | 0 W/m² | - |
| 1778053465 | 18.89° C | 74% | 1011.2 hPa | 0 mm | - | 0 W/m² | - |
| 1778052860 | 18.89° C | 73% | 1011.4 hPa | 0 mm | - | 0 W/m² | - |
| 1778052260 | 18.89° C | 73% | 1011.5 hPa | 0 mm | - | 0 W/m² | - |
| 1778051055 | 18.89° C | 72% | 1011.5 hPa | 0 mm | - | 0 W/m² | - |
| 1778050450 | 19.44° C | 72% | 1011.5 hPa | 0 mm | - | 0 W/m² | - |
| 1778048638 | 19.44° C | 70% | 1011.5 hPa | 0 mm | - | 0 W/m² | - |
| 1778046832 | 20° C | 68% | 1011.7 hPa | 0 mm | - | 0 W/m² | - |
| 1778045626 | 20.56° C | 67% | 1011.8 hPa | 0 mm | - | 0 W/m² | - |
| 1778044422 | 20.56° C | 66% | 1012.1 hPa | 0 mm | - | 0 W/m² | - |
| 1778043216 | 21.11° C | 65% | 1012.2 hPa | 0 mm | - | 0 W/m² | - |
| 1778042617 | 21.11° C | 65% | 1012.3 hPa | 0 mm | - | 0 W/m² | - |
| 1778042017 | 21.11° C | 64% | 1012 hPa | 0 mm | - | 0 W/m² | - |
| 1778041414 | 21.67° C | 62% | 1012.1 hPa | 0 mm | - | 0 W/m² | - |
* Rain latest hour (hover to see other rain measurements)
** Current wind speed in m/s (hover to see current wind gust speed)